Impacts METAR Board
IDs:

KHDC - Hammond/Northshore R, LA, US

Updated at: 1000 UTC 16 Aug 2018
Potential Impact None Slight Moderate High
Time 15/22Z 15/23Z 16/00Z 16/01Z 16/02Z 16/03Z 16/04Z 16/05Z 16/06Z 16/07Z 16/08Z 16/09Z 16/10Z
Temp90 88 82 82 81 79 79 79 77 73 73 75 73
Dewpt72 77 75 73 73 73 73 73 73 73 73 73 72
Altim29.99 29.99 30.01 30.01 30.01 30.02 30.03 30.03 30.03 30.03 30.04 30.03 30.04
VIS
CIG120 -- -- -- -- -- -- -- -- -- -- -- --
CoverBKNCLRCLRCLRCLR----CLR----------
FltCat
WX--------------------------
WDir2301701902202501700000000
WSpd7 12 6 4 3 3 0 0 0 0 0 0 0
WGst-- -- -- -- -- -- -- -- -- -- -- -- --
Raw hourly METARs
KHDC 152155Z AUTO 23007KT SCT060 SCT100 BKN120 32/22 A2999 RMK AO2 LTG DSNT SW PWINO
KHDC 152255Z AUTO 17012KT CLR 31/25 A2999 RMK AO2 LTG DSNT NE AND W PWINO
KHDC 152355Z AUTO 19006KT CLR 28/24 A3001 RMK AO2 LTG DSNT W PWINO
KHDC 160055Z AUTO 22004KT CLR 28/23 A3001 RMK AO2 PWINO
KHDC 160155Z AUTO 25003KT CLR 27/23 A3001 RMK AO2 PWINO
KHDC 160255Z AUTO 17003KT 26/23 A3002 RMK AO2 PWINO
KHDC 160355Z AUTO 00000KT 26/23 A3003 RMK AO2 PWINO
KHDC 160455Z AUTO 00000KT CLR 26/23 A3003 RMK AO2 PWINO
KHDC 160555Z AUTO 00000KT 25/23 A3003 RMK AO2 PWINO
KHDC 160655Z AUTO 00000KT 23/23 A3003 RMK AO2 PWINO
KHDC 160755Z AUTO 00000KT 23/23 A3004 RMK AO2 PWINO
KHDC 160855Z AUTO 00000KT 24/23 A3003 RMK AO2 PWINO
KHDC 160955Z AUTO 00000KT 23/22 A3004 RMK AO2 PWINO



Page loaded:  10:25 UTC  |   03:25 AM Pacific  |   04:25 AM Mountain  |   05:25 AM Central  |   06:25 AM Eastern

 

ADVISORIES

FORECASTS

FORECASTS

OBSERVATIONS

USER TOOLS

ABOUT US